Time;durP1;ratioP1;P1;durP2;ratioP2;P2;SDS_P1;SDS_P2;PMS_P1;PMS_P2;Temp;Humidity;BMP_temperature;BMP_pressure;BME280_temperature;BME280_humidity;BME280_pressure;Samples;Min_cycle;Max_cycle;Signal;HPM_P1;HPM_P2
2021/12/04 00:00:59;;;;;;;3.45;2.13;;;;;;;-0.71;70.50;97761.25;5032183;28;20041;-64
2021/12/04 00:03:26;;;;;;;5.03;2.08;;;;;;;-0.75;70.89;97752.06;5032013;28;20046;-64
2021/12/04 00:05:56;;;;;;;3.65;1.73;;;;;;;-0.79;70.89;97752.97;5032034;28;20050;-63
2021/12/04 00:08:27;;;;;;;4.50;2.35;;;;;;;-0.88;71.16;97766.50;5032207;28;20445;-64
2021/12/04 00:10:55;;;;;;;3.58;1.90;;;;;;;-0.89;71.21;97750.44;5032069;28;20053;-57
2021/12/04 00:13:22;;;;;;;3.47;1.63;;;;;;;-0.92;70.91;97753.78;5028949;28;20059;-60
2021/12/04 00:15:49;;;;;;;3.45;1.70;;;;;;;-0.95;71.25;97749.72;5032180;28;20489;-58
2021/12/04 00:18:16;;;;;;;3.55;1.95;;;;;;;-0.98;71.05;97753.03;5031453;28;20053;-57
2021/12/04 00:20:43;;;;;;;2.97;1.50;;;;;;;-1.02;71.11;97748.50;5032311;28;20049;-58
2021/12/04 00:23:11;;;;;;;6.47;1.95;;;;;;;-1.02;71.58;97754.75;5031292;28;20076;-57
2021/12/04 00:25:38;;;;;;;5.95;1.67;;;;;;;-1.07;71.34;97754.84;5032056;28;20441;-58
2021/12/04 00:28:07;;;;;;;4.97;1.90;;;;;;;-1.08;71.37;97755.16;5031444;28;20054;-60
2021/12/04 00:30:34;;;;;;;3.40;2.08;;;;;;;-1.12;71.47;97751.41;5032003;28;20049;-58
2021/12/04 00:33:11;;;;;;;4.65;1.75;;;;;;;-1.12;71.37;97756.88;5030045;28;20414;-58
2021/12/04 00:35:52;;;;;;;5.50;2.00;;;;;;;-1.18;71.51;97758.09;5019980;28;20045;-59
2021/12/04 00:49:17;;;;;;;2.13;1.42;;;;;;;-1.40;71.25;97769.63;5031456;28;20099;-58
2021/12/04 00:51:53;;;;;;;5.43;1.85;;;;;;;-1.44;71.43;97757.72;5031359;28;20053;-56
2021/12/04 00:54:26;;;;;;;3.35;1.70;;;;;;;-1.46;71.51;97759.09;5031481;28;20053;-58
2021/12/04 00:56:55;;;;;;;2.15;1.38;;;;;;;-1.49;71.63;97752.34;5031203;28;20053;-59
2021/12/04 00:59:22;;;;;;;3.90;1.27;;;;;;;-1.51;71.65;97753.75;5031798;28;20411;-59
2021/12/04 01:01:49;;;;;;;4.78;1.80;;;;;;;-1.54;71.70;97762.53;5030902;28;20051;-57
2021/12/04 01:04:19;;;;;;;2.40;1.67;;;;;;;-1.53;71.82;97747.78;5031677;28;20141;-56
2021/12/04 01:06:47;;;;;;;2.97;1.60;;;;;;;-1.54;71.68;97751.63;5030955;28;20061;-58
2021/12/04 01:09:15;;;;;;;2.78;1.60;;;;;;;-1.55;71.72;97752.72;5031787;28;20383;-61
2021/12/04 01:11:43;;;;;;;4.10;1.75;;;;;;;-1.57;71.81;97757.69;5029945;28;20421;-61
2021/12/04 01:14:13;;;;;;;6.63;1.75;;;;;;;-1.56;71.75;97760.09;5029478;28;20073;-61
2021/12/04 01:16:40;;;;;;;3.73;1.93;;;;;;;-1.60;71.91;97758.28;5013340;28;20073;-61
2021/12/04 01:19:07;;;;;;;2.80;1.65;;;;;;;-1.63;71.91;97758.88;5031234;28;20283;-63
2021/12/04 01:21:34;;;;;;;6.80;2.28;;;;;;;-1.64;72.12;97754.50;5031060;28;20052;-64
2021/12/04 01:24:02;;;;;;;3.92;1.80;;;;;;;-1.67;72.05;97752.38;5028319;28;20132;-64
2021/12/04 01:26:29;;;;;;;4.22;1.95;;;;;;;-1.66;72.13;97764.91;5031481;28;20077;-64
2021/12/04 01:28:56;;;;;;;3.15;1.65;;;;;;;-1.69;72.25;97749.16;5029766;28;20144;-64
2021/12/04 01:31:24;;;;;;;4.55;1.77;;;;;;;-1.69;72.18;97758.13;5034080;28;20054;-59
2021/12/04 01:33:51;;;;;;;5.65;1.67;;;;;;;-1.72;72.39;97755.22;5034961;28;20404;-62
2021/12/04 01:36:18;;;;;;;2.85;1.73;;;;;;;-1.73;72.43;97759.84;5035083;28;20136;-59
2021/12/04 01:38:45;;;;;;;3.75;1.85;;;;;;;-1.73;72.24;97759.03;5034477;28;20056;-58
2021/12/04 01:41:12;;;;;;;3.50;1.85;;;;;;;-1.81;72.16;97757.00;5027260;28;20057;-58
2021/12/04 01:43:39;;;;;;;6.45;1.60;;;;;;;-1.84;72.26;97752.13;5034258;28;20436;-58
2021/12/04 01:46:06;;;;;;;4.68;1.55;;;;;;;-1.86;72.41;97766.84;5035164;28;20107;-57
2021/12/04 01:48:34;;;;;;;3.78;2.05;;;;;;;-1.86;72.48;97758.66;5034361;28;20049;-57
2021/12/04 01:51:01;;;;;;;3.88;1.88;;;;;;;-1.87;72.51;97762.50;5034772;28;20056;-55
2021/12/04 01:53:28;;;;;;;4.38;2.20;;;;;;;-1.84;72.27;97763.81;5034042;28;20081;-57
2021/12/04 01:55:57;;;;;;;3.78;2.10;;;;;;;-1.85;72.46;97773.09;5034886;28;20049;-56
2021/12/04 01:58:26;;;;;;;3.90;1.98;;;;;;;-1.72;72.20;97772.34;5033931;28;20072;-57
2021/12/04 02:00:55;;;;;;;4.57;2.10;;;;;;;-1.63;71.92;97764.31;5026557;28;20080;-54
2021/12/04 02:03:23;;;;;;;3.40;1.73;;;;;;;-1.66;71.76;97770.38;5033896;28;20048;-58
2021/12/04 02:05:51;;;;;;;3.05;1.70;;;;;;;-1.76;72.27;97759.63;5031243;28;20046;-58
2021/12/04 02:08:20;;;;;;;3.85;2.10;;;;;;;-1.83;72.07;97759.19;5033803;28;20060;-58
2021/12/04 02:10:51;;;;;;;5.18;2.35;;;;;;;-1.84;72.06;97773.94;5034409;28;20057;-57
2021/12/04 02:13:18;;;;;;;4.10;1.80;;;;;;;-1.85;72.01;97775.84;5033446;28;20075;-57
2021/12/04 02:15:47;;;;;;;3.70;2.00;;;;;;;-1.86;72.26;97769.56;5034221;28;20493;-55
2021/12/04 02:18:16;;;;;;;4.00;1.90;;;;;;;-1.83;72.00;97778.25;5033851;28;20056;-58
2021/12/04 02:20:44;;;;;;;2.23;1.23;;;;;;;-1.90;72.12;97775.91;5034699;28;20045;-57
2021/12/04 02:23:11;;;;;;;5.85;1.90;;;;;;;-1.95;72.23;97779.50;5034514;28;20280;-59
2021/12/04 02:25:39;;;;;;;4.05;2.08;;;;;;;-1.98;72.60;97784.75;5034090;28;20132;-56
2021/12/04 02:28:08;;;;;;;5.00;2.60;;;;;;;-2.07;72.74;97773.69;5033859;28;20053;-56
2021/12/04 02:30:39;;;;;;;6.03;2.40;;;;;;;-2.05;72.59;97778.84;5033599;28;20077;-58
2021/12/04 02:33:14;;;;;;;7.32;2.33;;;;;;;-2.05;72.27;97790.56;5032651;28;20464;-59
2021/12/04 02:35:52;;;;;;;6.35;2.00;;;;;;;-2.04;72.45;97792.19;5032808;28;20107;-57
2021/12/04 02:38:23;;;;;;;4.78;2.20;;;;;;;-2.04;72.73;97792.19;5033282;28;20057;-58
2021/12/04 02:40:53;;;;;;;5.57;1.98;;;;;;;-2.06;72.62;97788.97;5030240;28;20057;-58
2021/12/04 02:43:21;;;;;;;4.22;2.10;;;;;;;-2.03;72.69;97793.00;5033516;28;20565;-57
2021/12/04 02:45:48;;;;;;;4.30;2.15;;;;;;;-2.05;72.50;97787.03;5033492;28;20045;-59
2021/12/04 02:48:16;;;;;;;7.13;2.28;;;;;;;-2.07;72.48;97792.78;5033414;28;20041;-59
2021/12/04 02:50:43;;;;;;;4.95;2.10;;;;;;;-2.12;72.59;97803.75;5033612;28;20448;-57
2021/12/04 02:53:10;;;;;;;3.85;1.95;;;;;;;-2.08;72.67;97801.22;5033555;28;20695;-59
2021/12/04 02:55:37;;;;;;;5.68;2.00;;;;;;;-2.11;72.73;97799.91;5033159;28;20127;-59
2021/12/04 02:58:22;;;;;;;5.80;2.53;;;;;;;-2.12;72.91;97795.59;5033204;28;20041;-58
2021/12/04 03:00:51;;;;;;;3.67;2.38;;;;;;;-2.05;72.59;97800.66;5033637;28;20489;-59
2021/12/04 03:03:19;;;;;;;3.45;2.10;;;;;;;-2.12;72.48;97794.75;5033043;28;20053;-57
2021/12/04 03:05:51;;;;;;;3.65;2.10;;;;;;;-2.19;72.66;97806.00;5032790;28;20041;-58
2021/12/04 03:08:22;;;;;;;5.55;2.50;;;;;;;-2.23;72.86;97805.00;5032996;28;20507;-56
2021/12/04 03:10:51;;;;;;;4.93;2.37;;;;;;;-2.23;72.62;97813.16;5031792;28;20061;-54
2021/12/04 03:13:20;;;;;;;3.33;1.90;;;;;;;-2.23;72.62;97810.44;5032784;28;20292;-58
2021/12/04 03:15:56;;;;;;;3.70;1.90;;;;;;;-2.28;72.79;97807.75;5032223;28;20087;-56
2021/12/04 03:18:23;;;;;;;5.22;1.85;;;;;;;-2.35;73.35;97818.22;5032809;28;20137;-57
2021/12/04 03:20:54;;;;;;;3.95;1.77;;;;;;;-2.37;73.36;97809.53;5033080;28;20056;-57
2021/12/04 03:23:29;;;;;;;7.60;2.30;;;;;;;-2.32;73.03;97823.06;5032583;28;20049;-59
2021/12/04 03:25:58;;;;;;;4.75;2.35;;;;;;;-2.26;73.22;97821.91;5029227;28;20045;-56
2021/12/04 03:28:26;;;;;;;13.75;1.73;;;;;;;-2.26;73.04;97818.38;5032409;28;20136;-58
2021/12/04 03:31:17;;;;;;;4.05;1.90;;;;;;;-2.32;72.75;97806.75;5032538;28;20049;-55
2021/12/04 03:42:14;;;;;;;4.53;1.83;;;;;;;-2.33;72.58;97809.75;4973922;28;20169;-64
2021/12/04 03:44:41;;;;;;;5.25;2.30;;;;;;;-2.33;72.41;97816.03;5032318;28;20136;-58
2021/12/04 03:47:09;;;;;;;3.92;2.20;;;;;;;-2.32;72.52;97800.47;5032256;28;20509;-56
2021/12/04 03:49:40;;;;;;;4.65;2.22;;;;;;;-2.24;72.71;97806.09;5032657;28;20115;-58
2021/12/04 03:52:08;;;;;;;4.80;1.85;;;;;;;-2.14;72.12;97811.41;5031778;28;20524;-54
2021/12/04 03:54:36;;;;;;;3.63;1.98;;;;;;;-2.03;72.24;97809.34;5031825;28;20127;-64
2021/12/04 03:57:04;;;;;;;3.05;1.75;;;;;;;-1.92;71.62;97827.97;5032027;28;20053;-63
2021/12/04 03:59:32;;;;;;;3.85;1.90;;;;;;;-1.91;71.34;97813.25;5032160;28;20095;-63
2021/12/04 04:01:59;;;;;;;3.40;1.88;;;;;;;-1.88;71.28;97806.41;5031770;28;20532;-63
2021/12/04 04:04:27;;;;;;;3.85;1.73;;;;;;;-1.89;71.53;97811.03;5032379;28;20057;-63
2021/12/04 04:06:53;;;;;;;4.40;2.20;;;;;;;-1.89;71.30;97813.75;5031851;28;20053;-63
2021/12/04 04:09:20;;;;;;;3.55;2.03;;;;;;;-1.83;71.18;97811.78;5028523;28;20119;-63
2021/12/04 04:11:47;;;;;;;3.08;1.80;;;;;;;-1.77;71.42;97801.59;5030589;28;20505;-56
2021/12/04 04:14:14;;;;;;;3.60;1.73;;;;;;;-1.76;71.10;97814.94;5032167;28;20057;-61
2021/12/04 04:16:41;;;;;;;3.75;1.35;;;;;;;-1.76;70.93;97822.28;5032333;28;20052;-59
2021/12/04 04:19:10;;;;;;;4.18;1.83;;;;;;;-1.70;71.02;97823.84;5031362;28;20064;-58
2021/12/04 04:21:41;;;;;;;5.90;3.63;;;;;;;-1.70;71.18;97834.72;5032062;28;20056;-55
2021/12/04 04:24:13;;;;;;;4.30;2.28;;;;;;;-1.69;71.31;97836.38;5030189;28;20076;-58
2021/12/04 04:26:43;;;;;;;4.20;2.05;;;;;;;-1.64;71.15;97833.56;5031927;28;20576;-58
2021/12/04 04:29:11;;;;;;;6.25;2.10;;;;;;;-1.60;70.91;97835.38;5031858;28;20060;-61
2021/12/04 04:31:45;;;;;;;6.43;2.42;;;;;;;-1.61;70.84;97838.41;5031905;28;20079;-62
2021/12/04 04:34:24;;;;;;;3.85;1.63;;;;;;;-1.66;70.40;97838.50;5031954;28;20095;-58
2021/12/04 04:59:03;;;;;;;7.53;2.03;;;;;;;-1.69;70.68;97858.19;5031365;28;20107;-58
2021/12/04 05:12:28;;;;;;;3.97;2.03;;;;;;;-1.87;70.75;97865.22;5032985;28;20140;-58
2021/12/04 05:14:58;;;;;;;3.38;1.58;;;;;;;-1.80;70.69;97873.03;5035544;28;20049;-58
2021/12/04 05:19:55;;;;;;;3.35;1.45;;;;;;;-1.70;70.49;97875.63;5035763;28;20181;-57
2021/12/04 05:22:22;;;;;;;3.40;1.52;;;;;;;-1.64;70.27;97885.34;5035013;28;20053;-57
2021/12/04 05:24:49;;;;;;;4.47;2.28;;;;;;;-1.63;70.30;97895.16;5035225;28;20049;-57
2021/12/04 05:27:17;;;;;;;3.42;1.83;;;;;;;-1.61;70.19;97892.94;5034524;28;20057;-53
2021/12/04 05:29:44;;;;;;;4.25;2.03;;;;;;;-1.58;70.16;97898.63;5035437;28;20132;-58
2021/12/04 05:32:11;;;;;;;2.97;1.48;;;;;;;-1.60;70.27;97895.38;5033117;28;20076;-57
2021/12/04 05:34:38;;;;;;;4.20;2.00;;;;;;;-1.67;70.31;97884.03;5033592;28;20049;-56
2021/12/04 05:37:05;;;;;;;4.85;2.25;;;;;;;-1.61;70.47;97892.94;5034352;28;20049;-57
2021/12/04 05:39:32;;;;;;;4.38;2.00;;;;;;;-1.61;70.53;97892.94;5031378;28;20045;-58
2021/12/04 05:42:00;;;;;;;5.25;2.95;;;;;;;-1.59;70.61;97898.91;5034774;28;20421;-56
2021/12/04 05:44:29;;;;;;;3.53;1.60;;;;;;;-1.55;70.66;97905.38;5034515;28;20065;-58
2021/12/04 05:47:42;;;;;;;5.57;2.33;;;;;;;-1.57;70.55;97893.97;5023016;28;20053;-57
2021/12/04 05:49:59;;;;;;;4.87;1.87;;;;;;;-1.54;70.68;97894.19;5015433;28;20524;-61
2021/12/04 05:52:50;;;;;;;3.53;1.80;;;;;;;-1.48;70.42;97900.41;5034393;28;20085;-56
2021/12/04 05:55:21;;;;;;;5.43;2.28;;;;;;;-1.49;70.22;97901.47;5032920;28;20416;-61
2021/12/04 05:57:48;;;;;;;3.70;1.85;;;;;;;-1.47;70.37;97899.28;5034657;28;20466;-57
2021/12/04 06:00:21;;;;;;;3.95;1.90;;;;;;;-1.45;70.12;97907.97;5034645;28;20071;-57
2021/12/04 06:02:48;;;;;;;3.53;2.13;;;;;;;-1.44;70.53;97915.88;5034361;28;20100;-58
2021/12/04 06:05:17;;;;;;;3.65;1.65;;;;;;;-1.42;70.02;97918.28;5034363;28;20054;-56
2021/12/04 06:07:44;;;;;;;4.57;1.90;;;;;;;-1.44;70.26;97925.94;5034004;28;20116;-61
2021/12/04 06:10:12;;;;;;;7.82;2.00;;;;;;;-1.40;70.19;97916.88;5034839;28;20129;-51
2021/12/04 06:12:39;;;;;;;5.05;1.77;;;;;;;-1.34;70.05;97912.16;5030314;28;20045;-62
2021/12/04 06:15:07;;;;;;;3.65;1.90;;;;;;;-1.34;69.96;97931.25;5034569;28;20049;-64
2021/12/04 06:17:33;;;;;;;3.10;1.50;;;;;;;-1.41;70.45;97934.38;5033456;28;20144;-64
2021/12/04 06:22:46;;;;;;;4.75;1.90;;;;;;;-1.55;70.67;97940.81;5033969;28;20073;-64
2021/12/04 06:25:19;;;;;;;4.18;1.90;;;;;;;-1.54;70.94;97945.19;5034441;28;20055;-65
2021/12/04 06:27:47;;;;;;;3.28;2.10;;;;;;;-1.56;70.84;97944.66;5034217;28;20063;-63
2021/12/04 06:30:16;;;;;;;3.80;1.70;;;;;;;-1.54;71.15;97953.38;5034467;28;20547;-64
2021/12/04 06:32:47;;;;;;;6.67;1.73;;;;;;;-1.57;71.09;97952.03;5033210;28;20085;-64
2021/12/04 06:35:15;;;;;;;4.35;2.03;;;;;;;-1.51;71.12;97959.03;5027117;28;20053;-64
2021/12/04 06:37:43;;;;;;;3.20;1.83;;;;;;;-1.53;70.99;97971.34;5033340;28;20061;-63
2021/12/04 06:40:12;;;;;;;6.80;1.95;;;;;;;-1.51;71.11;97980.03;5034276;28;20136;-63
2021/12/04 06:42:41;;;;;;;5.25;1.73;;;;;;;-1.49;71.20;97983.28;5033117;28;20053;-62
2021/12/04 06:45:09;;;;;;;4.00;1.90;;;;;;;-1.49;71.32;97975.91;5033857;28;20064;-64
2021/12/04 06:47:38;;;;;;;5.78;2.65;;;;;;;-1.49;71.38;97978.63;5033134;28;20530;-64
2021/12/04 06:50:13;;;;;;;4.88;1.67;;;;;;;-1.55;71.41;97970.81;5033987;28;20054;-64
2021/12/04 06:52:44;;;;;;;2.85;1.67;;;;;;;-1.53;71.52;97993.16;5032998;28;20127;-64
2021/12/04 06:55:14;;;;;;;4.25;1.88;;;;;;;-1.55;71.67;97992.63;5033723;28;20137;-64
2021/12/04 06:57:43;;;;;;;2.53;1.67;;;;;;;-1.55;71.77;98003.53;5033162;28;20503;-64
2021/12/04 07:00:11;;;;;;;3.50;2.00;;;;;;;-1.53;71.63;97996.69;5033746;28;20471;-64
2021/12/04 07:02:38;;;;;;;1.48;1.02;;;;;;;-1.51;72.14;97993.69;5032889;28;20114;-65
2021/12/04 07:05:06;;;;;;;3.80;1.80;;;;;;;-1.56;72.73;98015.53;5031924;28;20060;-63
2021/12/04 07:07:32;;;;;;;4.50;2.28;;;;;;;-1.60;73.11;98006.34;5032743;28;20137;-63
2021/12/04 07:10:00;;;;;;;2.15;1.45;;;;;;;-1.60;72.90;98025.41;5032158;28;20091;-63
2021/12/04 07:12:28;;;;;;;3.05;1.67;;;;;;;-1.65;72.39;98018.13;5027698;28;20069;-64
2021/12/04 07:14:55;;;;;;;3.88;2.00;;;;;;;-1.71;72.31;98034.81;5032992;28;20103;-64
2021/12/04 07:17:22;;;;;;;4.65;2.25;;;;;;;-1.69;72.31;98038.06;5031253;28;20049;-64
2021/12/04 07:19:49;;;;;;;4.95;2.28;;;;;;;-1.69;72.52;98043.53;5029387;28;20406;-64
2021/12/04 07:22:16;;;;;;;4.10;1.90;;;;;;;-1.68;71.89;98031.50;5031509;28;20052;-64
2021/12/04 07:24:43;;;;;;;3.33;1.80;;;;;;;-1.66;71.94;98042.94;5033161;28;20483;-64
2021/12/04 07:27:10;;;;;;;3.70;2.05;;;;;;;-1.58;71.68;98051.28;5032837;28;20133;-64
2021/12/04 07:29:37;;;;;;;3.53;1.60;;;;;;;-1.54;71.58;98051.50;5032460;28;20060;-64
2021/12/04 07:32:04;;;;;;;5.25;2.30;;;;;;;-1.50;70.96;98058.00;5032909;28;20050;-64
2021/12/04 07:34:31;;;;;;;2.60;1.58;;;;;;;-1.59;70.41;98065.19;5032450;28;20140;-63
2021/12/04 07:36:58;;;;;;;1.10;0.85;;;;;;;-1.66;70.14;98070.19;5024449;28;20132;-65
2021/12/04 07:39:25;;;;;;;2.58;1.42;;;;;;;-1.75;68.00;98083.63;5032479;28;20084;-65
2021/12/04 07:41:51;;;;;;;1.42;1.00;;;;;;;-1.83;65.83;98098.69;5032611;28;20049;-65
2021/12/04 07:44:18;;;;;;;2.28;1.30;;;;;;;-1.88;64.25;98109.66;5032002;28;20091;-64
2021/12/04 07:46:45;;;;;;;1.00;0.68;;;;;;;-1.88;64.19;98117.84;5031125;28;20424;-64
2021/12/04 07:49:12;;;;;;;5.80;1.48;;;;;;;-1.75;63.52;98131.91;5031657;28;20099;-64
2021/12/04 07:51:39;;;;;;;2.15;0.88;;;;;;;-1.63;63.25;98129.59;5032377;28;20504;-65
2021/12/04 07:54:08;;;;;;;0.90;0.73;;;;;;;-1.61;62.01;98132.81;5032219;28;20136;-65
2021/12/04 07:56:34;;;;;;;0.95;0.60;;;;;;;-1.61;61.00;98138.25;5028807;28;20432;-60
2021/12/04 07:59:02;;;;;;;1.48;0.88;;;;;;;-1.49;60.55;98146.88;5032104;28;20075;-61
2021/12/04 08:01:29;;;;;;;2.97;1.40;;;;;;;-1.39;60.68;98147.56;5032250;28;20140;-58
2021/12/04 08:03:56;;;;;;;3.05;1.38;;;;;;;-1.38;60.08;98148.38;5031998;28;20049;-58
2021/12/04 08:06:23;;;;;;;2.60;1.20;;;;;;;-1.38;59.78;98159.28;5030716;28;20128;-61
2021/12/04 08:08:53;;;;;;;2.58;1.08;;;;;;;-1.39;60.19;98146.78;5031137;28;20076;-59
2021/12/04 08:11:20;;;;;;;2.80;1.30;;;;;;;-1.36;60.25;98163.34;5032008;28;20471;-64
2021/12/04 08:13:48;;;;;;;1.38;1.02;;;;;;;-1.29;59.91;98163.00;5032623;28;20057;-64
2021/12/04 08:16:15;;;;;;;4.85;1.48;;;;;;;-1.32;59.25;98174.50;5031970;28;20447;-64
2021/12/04 08:18:42;;;;;;;4.13;1.15;;;;;;;-1.34;59.13;98168.50;5032267;28;20084;-64
2021/12/04 08:21:09;;;;;;;1.80;1.27;;;;;;;-1.21;59.27;98171.38;5031620;28;20415;-65
2021/12/04 08:23:36;;;;;;;3.58;1.10;;;;;;;-1.13;58.37;98168.00;5032048;28;20050;-64
2021/12/04 08:26:03;;;;;;;5.22;1.80;;;;;;;-1.00;58.72;98188.31;5031825;28;20139;-64
2021/12/04 08:28:30;;;;;;;1.42;0.93;;;;;;;-0.97;58.04;98187.75;5031861;28;20067;-63
2021/12/04 08:30:57;;;;;;;3.42;1.75;;;;;;;-0.85;58.95;98190.88;5031778;28;20056;-63
2021/12/04 08:33:24;;;;;;;2.10;1.27;;;;;;;-0.77;58.72;98196.47;5031578;28;20505;-63
2021/12/04 08:35:51;;;;;;;3.70;1.73;;;;;;;-0.71;59.09;98189.06;5031321;28;20053;-62
2021/12/04 08:38:18;;;;;;;4.95;1.40;;;;;;;-0.62;58.97;98195.50;5031981;28;20524;-64
2021/12/04 08:40:47;;;;;;;2.20;1.25;;;;;;;-0.62;59.18;98198.22;5031386;28;20049;-64
2021/12/04 08:43:14;;;;;;;1.92;1.17;;;;;;;-0.56;58.58;98197.84;5031537;28;20068;-63
2021/12/04 08:45:42;;;;;;;1.98;0.95;;;;;;;-0.52;58.64;98198.91;5031475;28;20136;-63
2021/12/04 08:48:10;;;;;;;3.42;1.67;;;;;;;-0.27;57.67;98208.63;5022320;28;20072;-64
2021/12/04 08:50:38;;;;;;;8.70;1.42;;;;;;;-0.10;56.90;98203.47;5032140;28;20055;-65
2021/12/04 08:53:07;;;;;;;2.47;1.27;;;;;;;-0.16;56.49;98204.66;5031031;28;20049;-64
2021/12/04 08:55:37;;;;;;;2.53;1.48;;;;;;;-0.42;57.62;98211.56;5030961;28;20140;-64
2021/12/04 08:58:06;;;;;;;3.05;1.48;;;;;;;0.24;56.84;98206.75;5031316;28;20100;-64
2021/12/04 09:00:48;;;;;;;2.22;1.10;;;;;;;0.39;55.05;98211.97;5031654;28;20171;-64
2021/12/04 09:03:32;;;;;;;3.05;1.23;;;;;;;0.13;55.25;98220.88;5030725;28;20123;-64
2021/12/04 09:05:59;;;;;;;2.55;1.23;;;;;;;-0.24;55.48;98218.97;5029212;28;20054;-64
2021/12/04 09:08:28;;;;;;;2.45;1.25;;;;;;;-0.28;55.78;98201.56;5031586;28;20051;-65
2021/12/04 09:11:00;;;;;;;1.45;0.90;;;;;;;0.01;55.22;98204.94;5031147;28;20057;-65
2021/12/04 09:13:28;;;;;;;;;;;;;;;0.14;53.32;98193.25;5031995;28;20444;-63
2021/12/04 09:15:57;;;;;;;0.70;0.60;;;;;;;0.11;53.17;98212.19;5031337;28;19932;-63
2021/12/04 09:18:25;;;;;;;2.08;0.95;;;;;;;0.10;52.27;98213.28;5028155;28;21658;-64
2021/12/04 09:20:54;;;;;;;0.70;0.63;;;;;;;0.08;52.49;98208.09;5030810;28;20063;-65
2021/12/04 09:23:24;;;;;;;2.00;1.17;;;;;;;-0.03;52.92;98217.56;5031106;28;20045;-65
2021/12/04 09:25:58;;;;;;;2.58;1.30;;;;;;;0.05;53.18;98216.91;5031267;28;20420;-65
2021/12/04 09:28:29;;;;;;;2.40;1.35;;;;;;;0.06;53.68;98228.66;5027721;28;20402;-59
2021/12/04 09:34:10;;;;;;;1.17;0.80;;;;;;;-0.12;53.54;98230.25;5024764;28;20510;-56
2021/12/04 10:01:13;;;;;;;1.85;0.90;;;;;;;-0.98;55.74;98248.88;5034471;28;20056;-59
2021/12/04 10:17:38;;;;;;;2.00;0.80;;;;;;;-1.31;56.56;98272.41;5031153;28;20080;-58
2021/12/04 10:20:18;;;;;;;1.50;0.95;;;;;;;-1.43;56.66;98273.88;5033878;28;20152;-59
2021/12/04 10:33:58;;;;;;;1.73;1.25;;;;;;;-1.47;57.83;98300.91;5033260;28;20061;-57
2021/12/04 10:36:29;;;;;;;3.15;1.33;;;;;;;-1.49;58.20;98288.66;5033393;28;20437;-57
2021/12/04 10:38:57;;;;;;;1.63;0.90;;;;;;;-1.48;58.09;98290.28;5033898;28;20057;-58
2021/12/04 10:41:34;;;;;;;2.05;1.10;;;;;;;-1.61;58.42;98310.84;5031536;28;20084;-58
2021/12/04 10:44:25;;;;;;;1.52;1.02;;;;;;;-1.64;58.42;98302.41;5033321;28;20063;-58
2021/12/04 10:47:07;;;;;;;4.25;1.83;;;;;;;-1.65;58.86;98311.69;5032999;28;20056;-57
2021/12/04 10:55:26;;;;;;;2.22;1.13;;;;;;;-1.56;59.04;98326.34;5032690;28;20421;-58
2021/12/04 11:04:12;;;;;;;4.18;1.25;;;;;;;-1.69;59.40;98333.25;4993542;28;20107;-57
2021/12/04 11:07:04;;;;;;;3.53;1.60;;;;;;;-1.72;59.18;98333.81;5022435;28;20053;-61
2021/12/04 11:38:03;;;;;;;1.85;0.95;;;;;;;-1.99;59.32;98366.13;5032638;28;20307;-62
2021/12/04 11:43:23;;;;;;;1.92;0.95;;;;;;;-2.15;59.46;98376.31;5031845;28;20559;-62
2021/12/04 11:46:17;;;;;;;2.38;1.30;;;;;;;-2.15;59.33;98376.31;5032690;28;20076;-62
2021/12/04 11:48:45;;;;;;;0.70;0.70;;;;;;;-2.16;59.82;98379.31;5032231;28;20144;-62
2021/12/04 11:51:18;;;;;;;3.38;1.17;;;;;;;-2.22;59.61;98372.25;5030703;28;20096;-62
2021/12/04 11:53:46;;;;;;;2.75;1.55;;;;;;;-2.27;59.51;98373.09;5029138;28;20136;-62
2021/12/04 11:56:19;;;;;;;1.23;0.82;;;;;;;-2.28;59.82;98382.34;5032383;28;20049;-60
2021/12/04 11:58:49;;;;;;;1.33;0.90;;;;;;;-2.35;58.73;98381.81;5028964;28;20073;-63
2021/12/04 12:01:27;;;;;;;1.83;1.00;;;;;;;-2.41;59.66;98380.22;5031781;28;20077;-62
2021/12/04 12:03:57;;;;;;;2.05;1.15;;;;;;;-2.42;59.46;98394.94;5030013;28;20402;-62
2021/12/04 12:06:39;;;;;;;2.72;1.08;;;;;;;-2.42;59.82;98394.94;5031776;28;20053;-61
2021/12/04 12:09:14;;;;;;;2.20;1.17;;;;;;;-2.43;59.78;98393.28;5032369;28;20053;-62
2021/12/04 12:11:56;;;;;;;1.92;1.00;;;;;;;-2.42;59.27;98394.09;5031468;28;20591;-62
2021/12/04 12:14:41;;;;;;;2.13;0.77;;;;;;;-2.52;58.87;98400.38;5031862;28;20420;-63
2021/12/04 12:17:09;;;;;;;1.85;1.20;;;;;;;-2.59;59.22;98408.03;5028414;28;20467;-62
2021/12/04 12:19:43;;;;;;;4.35;1.40;;;;;;;-2.57;59.26;98403.16;5031844;28;20064;-62
2021/12/04 12:36:13;;;;;;;2.78;1.00;;;;;;;-2.74;59.49;98429.84;5031720;28;20053;-62
2021/12/04 12:38:46;;;;;;;1.95;1.02;;;;;;;-2.74;59.54;98429.84;5031369;28;20071;-62
2021/12/04 12:41:24;;;;;;;1.90;1.15;;;;;;;-2.66;59.30;98437.44;5031707;28;20509;-62
2021/12/04 12:44:03;;;;;;;1.45;0.85;;;;;;;-2.63;59.67;98439.59;5028025;28;20061;-61
2021/12/04 12:46:43;;;;;;;2.65;1.27;;;;;;;-2.67;59.93;98435.81;5031457;28;20136;-62
2021/12/04 12:49:38;;;;;;;3.58;1.58;;;;;;;-2.61;59.84;98440.16;5031415;28;20053;-61
2021/12/04 12:52:13;;;;;;;1.73;0.93;;;;;;;-2.63;59.85;98436.09;5029642;28;20073;-62
2021/12/04 12:54:43;;;;;;;3.45;1.50;;;;;;;-2.65;59.75;98444.53;5031336;28;20064;-62
2021/12/04 12:57:22;;;;;;;3.30;1.55;;;;;;;-2.66;59.92;98448.31;5031455;28;20042;-61
2021/12/04 13:11:46;;;;;;;2.45;1.35;;;;;;;-2.70;59.99;98474.44;5030860;28;20132;-63
2021/12/04 13:14:23;;;;;;;2.58;1.30;;;;;;;-2.62;60.13;98471.19;5031614;28;20057;-62
2021/12/04 13:16:55;;;;;;;2.08;1.23;;;;;;;-2.61;59.58;98472.81;5031006;28;20049;-61
2021/12/04 13:19:24;;;;;;;1.50;0.90;;;;;;;-2.60;59.85;98485.31;5030323;28;20169;-61
2021/12/04 13:21:56;;;;;;;3.03;1.63;;;;;;;-2.63;59.32;98485.06;5030700;28;20058;-62
2021/12/04 13:24:31;;;;;;;2.95;1.40;;;;;;;-2.64;59.68;98486.13;5031302;28;20535;-62
2021/12/04 13:29:41;;;;;;;2.13;1.17;;;;;;;-2.71;58.75;98494.59;5035425;28;20060;-61
2021/12/04 13:32:11;;;;;;;2.22;1.30;;;;;;;-2.81;58.58;98494.59;5035003;28;20378;-62
2021/12/04 13:34:40;;;;;;;4.60;1.77;;;;;;;-2.83;58.65;98495.97;5035107;28;20049;-61
2021/12/04 13:37:09;;;;;;;2.40;1.17;;;;;;;-2.80;58.17;98507.13;5034900;28;20042;-62
2021/12/04 13:39:39;;;;;;;2.72;1.55;;;;;;;-2.82;57.64;98508.47;5035295;28;20045;-62
2021/12/04 13:42:07;;;;;;;3.10;0.88;;;;;;;-2.81;57.30;98513.63;5034615;28;20053;-61
2021/12/04 13:44:35;;;;;;;3.72;1.67;;;;;;;-2.84;57.84;98508.72;5033446;28;20059;-62
2021/12/04 13:47:05;;;;;;;1.77;1.05;;;;;;;-2.83;57.35;98507.66;5034741;28;20476;-62
2021/12/04 13:49:34;;;;;;;;;;;;;;;-2.88;56.64;98521.25;5035239;28;20081;-62
2021/12/04 13:52:10;;;;;;;1.90;1.20;;;;;;;-2.90;56.85;98523.41;5034109;28;19925;-62
2021/12/04 13:54:45;;;;;;;1.30;0.98;;;;;;;-2.89;56.83;98522.34;5033818;28;20111;-62
2021/12/04 13:57:14;;;;;;;5.20;1.40;;;;;;;-2.89;56.72;98521.53;5034359;28;20045;-61
2021/12/04 13:59:41;;;;;;;2.63;1.20;;;;;;;-2.88;57.08;98526.69;5035054;28;20111;-61
2021/12/04 14:02:24;;;;;;;2.22;1.25;;;;;;;-2.82;57.17;98525.63;5034368;28;20052;-63
2021/12/04 14:05:05;;;;;;;3.88;1.65;;;;;;;-2.81;57.21;98529.97;5034264;28;20056;-61
2021/12/04 14:07:33;;;;;;;2.50;1.05;;;;;;;-2.83;58.09;98528.59;5024429;28;20049;-61
2021/12/04 14:10:37;;;;;;;4.30;1.40;;;;;;;-2.82;58.18;98530.22;5034467;28;20053;-61
2021/12/04 14:13:05;;;;;;;1.80;1.23;;;;;;;-2.80;58.08;98531.59;5001975;28;20100;-61
2021/12/04 14:15:33;;;;;;;2.55;1.60;;;;;;;-2.78;57.66;98543.03;5034753;28;20049;-66
2021/12/04 14:18:07;;;;;;;4.30;1.60;;;;;;;-2.73;57.82;98540.31;5034191;28;20505;-61
2021/12/04 14:20:37;;;;;;;1.10;0.57;;;;;;;-2.71;57.61;98538.16;5034824;28;20085;-61
2021/12/04 14:23:04;;;;;;;2.57;1.30;;;;;;;-2.85;57.54;98542.47;5034195;28;20452;-61
2021/12/04 14:25:31;;;;;;;2.45;1.45;;;;;;;-2.88;57.64;98544.91;5033584;28;20284;-61
2021/12/04 14:28:00;;;;;;;2.40;1.08;;;;;;;-2.85;57.59;98547.91;5034541;28;20409;-62
2021/12/04 14:30:32;;;;;;;3.42;1.20;;;;;;;-2.81;57.72;98549.00;5033694;28;20057;-61
2021/12/04 14:33:02;;;;;;;3.35;1.67;;;;;;;-2.79;57.79;98565.06;5034093;28;20073;-61
2021/12/04 14:35:33;;;;;;;3.15;1.42;;;;;;;-2.78;58.09;98561.28;5033421;28;20488;-61
2021/12/04 14:38:02;;;;;;;3.03;1.10;;;;;;;-2.83;57.37;98561.25;5032245;28;20056;-61
2021/12/04 14:41:03;;;;;;;3.00;1.33;;;;;;;-2.88;57.05;98555.81;5029771;28;20053;-62
2021/12/04 14:43:35;;;;;;;4.72;1.45;;;;;;;-2.89;57.54;98560.44;5019440;28;20069;-61
2021/12/04 14:46:05;;;;;;;2.50;1.40;;;;;;;-2.88;57.67;98559.34;5033917;28;20103;-62
2021/12/04 14:48:35;;;;;;;4.38;1.58;;;;;;;-2.80;57.18;98572.44;5033323;28;20417;-63
2021/12/04 14:51:13;;;;;;;2.85;0.98;;;;;;;-2.82;56.60;98565.59;5034437;28;20053;-62